createdAt,value
2018-08-07T00:01:24.821Z,11.43
2018-08-07T00:03:53.492Z,11.40
2018-08-07T00:06:22.208Z,11.80
2018-08-07T00:08:50.725Z,12.03
2018-08-07T00:11:19.520Z,12.10
2018-08-07T00:13:48.290Z,11.60
2018-08-07T00:16:16.822Z,12.03
2018-08-07T00:18:45.422Z,11.93
2018-08-07T00:21:14.021Z,11.35
2018-08-07T00:23:42.623Z,11.70
2018-08-07T00:26:11.163Z,11.70
2018-08-07T00:28:39.724Z,11.40
2018-08-07T00:31:08.626Z,11.53
2018-08-07T00:33:37.247Z,11.60
2018-08-07T00:36:05.519Z,11.22
2018-08-07T00:38:33.709Z,12.63
2018-08-07T00:41:02.398Z,11.17
2018-08-07T00:43:31.027Z,11.93
2018-08-07T00:45:59.595Z,12.37
2018-08-07T00:48:28.241Z,12.13
2018-08-07T00:50:56.807Z,11.60
2018-08-07T00:53:25.343Z,11.30
2018-08-07T00:55:54.014Z,11.63
2018-08-07T00:58:22.851Z,10.93
2018-08-07T01:00:51.407Z,10.63
2018-08-07T01:03:20.036Z,11.00
2018-08-07T01:05:48.570Z,10.90
2018-08-07T01:08:17.110Z,10.77
2018-08-07T01:10:45.639Z,12.53
2018-08-07T01:13:14.179Z,11.57
2018-08-07T01:15:42.727Z,11.23
2018-08-07T01:18:11.279Z,11.33
2018-08-07T01:20:39.963Z,11.00
2018-08-07T01:23:08.554Z,11.53
2018-08-07T01:25:37.230Z,11.83
2018-08-07T01:28:06.002Z,11.80
2018-08-07T01:30:34.819Z,12.67
2018-08-07T01:33:03.513Z,12.93
2018-08-07T01:35:32.110Z,12.20
2018-08-07T01:38:00.678Z,11.73
2018-08-07T01:40:29.277Z,13.17
2018-08-07T01:42:57.875Z,13.60
2018-08-07T01:45:26.511Z,12.67
2018-08-07T01:47:55.104Z,12.93
2018-08-07T01:50:23.604Z,13.47
2018-08-07T01:52:52.147Z,13.50
2018-08-07T01:55:23.467Z,12.53
2018-08-07T01:57:52.369Z,13.60
2018-08-07T02:00:21.131Z,13.47
2018-08-07T02:02:50.218Z,12.80
2018-08-07T02:05:19.178Z,13.13
2018-08-07T02:07:47.985Z,13.80
2018-08-07T02:10:18.216Z,13.73
2018-08-07T02:12:46.381Z,14.57
2018-08-07T02:15:15.493Z,14.60
2018-08-07T02:17:43.774Z,13.37
2018-08-07T02:20:13.985Z,14.70
2018-08-07T02:22:43.434Z,13.83
2018-08-07T02:25:13.680Z,15.27
2018-08-07T02:27:42.711Z,13.97
2018-08-07T02:30:12.569Z,13.60
2018-08-07T02:32:41.223Z,13.60
2018-08-07T02:35:11.494Z,13.00
2018-08-07T02:37:40.693Z,14.00
2018-08-07T02:40:10.761Z,13.97
2018-08-07T02:42:39.320Z,13.40
2018-08-07T02:45:10.983Z,14.63
2018-08-07T02:47:39.694Z,13.93
2018-08-07T02:50:08.934Z,12.53
2018-08-07T02:52:37.850Z,12.17
2018-08-07T02:55:08.371Z,13.47
2018-08-07T02:57:36.966Z,13.73
2018-08-07T03:00:06.980Z,12.70
2018-08-07T03:02:35.542Z,13.77
2018-08-07T03:05:04.862Z,14.60
2018-08-07T03:07:33.433Z,13.20
2018-08-07T03:10:02.007Z,13.07
2018-08-07T03:12:30.560Z,14.37
2018-08-07T03:14:59.131Z,13.93
2018-08-07T03:17:27.623Z,12.00
2018-08-07T03:19:56.114Z,14.37
2018-08-07T03:22:24.695Z,12.73
2018-08-07T03:24:53.300Z,14.20
2018-08-07T03:27:21.822Z,14.17
2018-08-07T03:29:50.328Z,14.20
2018-08-07T03:32:19.139Z,14.10
2018-08-07T03:34:47.763Z,13.97
2018-08-07T03:37:16.253Z,15.60
2018-08-07T03:39:44.780Z,14.73
2018-08-07T03:42:13.294Z,15.43
2018-08-07T03:44:41.934Z,14.20
2018-08-07T03:47:10.503Z,16.33
2018-08-07T03:49:39.114Z,16.30
2018-08-07T03:52:07.856Z,15.67
2018-08-07T03:54:36.359Z,15.07
2018-08-07T03:57:05.204Z,15.20
2018-08-07T03:59:33.707Z,13.63
2018-08-07T04:02:02.271Z,15.40
2018-08-07T04:04:30.806Z,13.90
2018-08-07T04:06:59.382Z,13.97
2018-08-07T04:09:28.078Z,13.30
2018-08-07T04:11:56.702Z,13.33
2018-08-07T04:14:25.295Z,13.70
2018-08-07T04:16:55.487Z,13.37
2018-08-07T04:19:25.812Z,13.13
2018-08-07T04:21:55.104Z,11.80
2018-08-07T04:24:23.438Z,12.40
2018-08-07T04:26:52.278Z,12.87
2018-08-07T04:29:21.047Z,11.50
2018-08-07T04:31:49.705Z,10.90
2018-08-07T04:34:18.214Z,11.93
2018-08-07T04:36:46.794Z,12.23
2018-08-07T04:39:15.319Z,11.47
2018-08-07T04:41:43.850Z,11.50
2018-08-07T04:44:12.514Z,11.90
2018-08-07T04:46:41.252Z,11.07
2018-08-07T04:49:10.128Z,10.90
2018-08-07T04:51:38.651Z,10.60
2018-08-07T04:54:07.559Z,11.67
2018-08-07T04:56:37.490Z,11.27
2018-08-07T04:59:06.667Z,11.13
2018-08-07T05:01:35.195Z,12.07
2018-08-07T05:04:03.932Z,9.80
2018-08-07T05:06:32.490Z,9.40
2018-08-07T05:09:01.052Z,13.20
2018-08-07T05:11:29.276Z,11.70
2018-08-07T05:13:57.833Z,11.30
2018-08-07T05:16:26.390Z,11.43
2018-08-07T05:18:54.952Z,12.83
2018-08-07T05:21:23.470Z,12.07
2018-08-07T05:23:51.993Z,11.57
2018-08-07T05:26:20.512Z,11.10
2018-08-07T05:28:49.152Z,11.83
2018-08-07T05:31:17.854Z,10.33
2018-08-07T05:33:46.363Z,12.10
2018-08-07T05:36:14.947Z,10.50
2018-08-07T05:38:44.232Z,9.93
2018-08-07T05:41:12.919Z,12.07
2018-08-07T05:43:42.015Z,11.20
2018-08-07T05:46:10.656Z,10.40
2018-08-07T05:48:39.263Z,9.80
2018-08-07T05:51:08.883Z,11.30
2018-08-07T05:53:37.477Z,12.20
2018-08-07T05:56:06.139Z,11.47
2018-08-07T05:58:34.692Z,10.33
2018-08-07T06:01:03.431Z,11.73
2018-08-07T06:03:32.113Z,11.00
2018-08-07T06:06:00.680Z,10.30
2018-08-07T06:08:29.281Z,11.50
2018-08-07T06:10:57.857Z,10.13
2018-08-07T06:13:26.435Z,9.73
2018-08-07T06:15:55.023Z,9.90
2018-08-07T06:18:23.544Z,11.10
2018-08-07T06:20:52.060Z,9.50
2018-08-07T06:23:20.587Z,10.60
2018-08-07T06:25:49.116Z,10.90
2018-08-07T06:28:17.794Z,9.57
2018-08-07T06:30:46.361Z,11.03
2018-08-07T06:33:14.879Z,9.10
2018-08-07T06:35:43.450Z,10.23
2018-08-07T06:38:11.968Z,10.60
2018-08-07T06:40:40.528Z,9.70
2018-08-07T06:43:09.105Z,10.20
2018-08-07T06:45:37.674Z,10.33
2018-08-07T06:48:06.889Z,9.40
2018-08-07T06:50:35.422Z,10.90
2018-08-07T06:53:04.011Z,10.60
2018-08-07T06:55:32.627Z,10.90
2018-08-07T06:58:01.277Z,10.50
2018-08-07T07:00:29.887Z,10.53
2018-08-07T07:02:58.485Z,10.00
2018-08-07T07:05:27.022Z,9.30
2018-08-07T07:07:55.560Z,10.40
2018-08-07T07:10:24.292Z,9.63
2018-08-07T07:12:52.832Z,9.90
2018-08-07T07:15:21.423Z,11.37
2018-08-07T07:17:49.649Z,10.13
2018-08-07T07:20:19.083Z,10.73
2018-08-07T07:22:48.648Z,10.40
2018-08-07T07:25:17.328Z,9.73
2018-08-07T07:27:45.992Z,10.73
2018-08-07T07:30:17.654Z,10.57
2018-08-07T07:32:47.443Z,11.37
2018-08-07T07:35:16.586Z,10.57
2018-08-07T07:37:45.227Z,11.10
2018-08-07T07:40:13.815Z,11.13
2018-08-07T07:42:42.440Z,10.23
2018-08-07T07:45:13.461Z,10.60
2018-08-07T07:47:42.131Z,10.90
2018-08-07T07:50:13.364Z,10.57
2018-08-07T07:52:42.765Z,10.53
2018-08-07T07:55:12.527Z,10.90
2018-08-07T07:57:41.430Z,10.80
2018-08-07T08:00:14.312Z,11.37
2018-08-07T08:02:42.835Z,11.50
2018-08-07T08:05:11.471Z,11.10
2018-08-07T08:07:40.282Z,11.47
2018-08-07T08:10:09.884Z,11.10
2018-08-07T08:12:39.312Z,11.60
2018-08-07T08:15:11.287Z,10.93
2018-08-07T08:17:40.031Z,10.03
2018-08-07T08:20:10.551Z,10.80
2018-08-07T08:22:39.147Z,11.23
2018-08-07T08:25:09.299Z,10.43
2018-08-07T08:27:37.876Z,10.50
2018-08-07T08:30:10.002Z,10.90
2018-08-07T08:32:38.709Z,11.20
2018-08-07T08:35:09.854Z,10.93
2018-08-07T08:37:38.963Z,10.93
2018-08-07T08:40:09.365Z,11.37
2018-08-07T08:42:38.710Z,10.93
2018-08-07T08:45:10.875Z,9.80
2018-08-07T08:47:39.632Z,11.13
2018-08-07T08:50:11.123Z,10.20
2018-08-07T08:52:40.151Z,12.00
2018-08-07T08:55:09.376Z,11.33
2018-08-07T08:57:38.148Z,11.40
2018-08-07T09:00:17.380Z,10.33
2018-08-07T09:02:46.800Z,11.20
2018-08-07T09:05:15.532Z,10.30
2018-08-07T09:07:44.967Z,11.43
2018-08-07T09:10:29.947Z,10.13
2018-08-07T09:12:59.556Z,11.13
2018-08-07T09:15:28.134Z,10.40
2018-08-07T09:17:56.816Z,10.70
2018-08-07T09:20:27.573Z,10.43
2018-08-07T09:22:56.764Z,11.60
2018-08-07T09:25:26.770Z,11.60
2018-08-07T09:27:55.317Z,10.63
2018-08-07T09:30:25.404Z,11.30
2018-08-07T09:32:54.887Z,9.90
2018-08-07T09:35:24.074Z,10.77
2018-08-07T09:37:52.911Z,10.30
2018-08-07T09:40:22.465Z,10.47
2018-08-07T09:42:52.544Z,11.20
2018-08-07T09:45:25.156Z,11.27
2018-08-07T09:47:53.701Z,11.27
2018-08-07T09:50:22.833Z,10.90
2018-08-07T09:52:51.139Z,11.60
2018-08-07T09:55:19.976Z,9.70
2018-08-07T09:57:48.620Z,10.20
2018-08-07T10:00:24.489Z,10.80
2018-08-07T10:02:57.831Z,9.57
2018-08-07T10:05:27.481Z,9.00
2018-08-07T10:07:56.048Z,9.97
2018-08-07T10:10:25.040Z,9.53
2018-08-07T10:12:53.647Z,9.43
2018-08-07T10:15:22.205Z,9.80
2018-08-07T10:17:50.833Z,9.27
2018-08-07T10:20:19.513Z,8.10
2018-08-07T10:22:48.611Z,9.50
2018-08-07T10:25:18.762Z,9.00
2018-08-07T10:27:47.850Z,8.17
2018-08-07T10:30:18.869Z,7.43
2018-08-07T10:32:48.192Z,9.17
2018-08-07T10:35:17.060Z,8.03
2018-08-07T10:37:46.440Z,8.83
2018-08-07T10:40:16.868Z,9.03
2018-08-07T10:42:45.584Z,9.47
2018-08-07T10:45:16.751Z,8.43
2018-08-07T10:47:45.514Z,8.90
2018-08-07T10:50:21.807Z,9.27
2018-08-07T10:52:50.904Z,9.90
2018-08-07T10:55:20.291Z,9.00
2018-08-07T10:57:50.422Z,7.97
2018-08-07T11:00:20.427Z,8.90
2018-08-07T11:02:50.283Z,7.97
2018-08-07T11:05:19.435Z,8.13
2018-08-07T11:07:47.986Z,8.10
2018-08-07T11:10:17.008Z,8.10
2018-08-07T11:12:45.532Z,8.03
2018-08-07T11:15:17.180Z,8.37
2018-08-07T11:17:46.466Z,8.07
2018-08-07T11:20:15.546Z,7.63
2018-08-07T11:22:46.137Z,8.20
2018-08-07T11:25:15.357Z,8.33
2018-08-07T11:27:43.992Z,8.20
2018-08-07T11:30:16.903Z,8.37
2018-08-07T11:32:45.923Z,7.27
2018-08-07T11:35:15.113Z,8.00
2018-08-07T11:37:45.994Z,7.37
2018-08-07T11:40:16.513Z,7.10
2018-08-07T11:42:46.065Z,7.00
2018-08-07T11:45:16.096Z,6.23
2018-08-07T11:47:44.387Z,6.87
2018-08-07T11:50:17.043Z,6.40
2018-08-07T11:52:45.625Z,6.77
2018-08-07T11:55:15.689Z,7.00
2018-08-07T11:57:44.988Z,7.20
2018-08-07T12:00:18.059Z,7.20
2018-08-07T12:02:47.210Z,6.33
2018-08-07T12:05:16.070Z,6.12
2018-08-07T12:07:44.762Z,5.77
2018-08-07T12:10:14.861Z,7.23
2018-08-07T12:12:44.116Z,6.07
2018-08-07T12:15:15.463Z,6.00
2018-08-07T12:17:44.179Z,5.83
2018-08-07T12:20:12.728Z,6.10
2018-08-07T12:22:41.360Z,5.70
2018-08-07T12:25:11.951Z,6.00
2018-08-07T12:27:40.619Z,5.80
2018-08-07T12:30:16.445Z,5.70
2018-08-07T12:32:45.594Z,5.37
2018-08-07T12:35:14.222Z,5.40
2018-08-07T12:37:42.797Z,5.57
2018-08-07T12:40:17.482Z,6.00
2018-08-07T12:42:46.677Z,5.80
2018-08-07T12:45:15.285Z,5.77
2018-08-07T12:47:44.644Z,6.07
2018-08-07T12:50:14.386Z,6.00
2018-08-07T12:52:43.226Z,5.33
2018-08-07T12:55:14.560Z,5.60
2018-08-07T12:57:43.590Z,6.23
2018-08-07T13:00:18.648Z,5.57
2018-08-07T13:02:47.515Z,5.20
2018-08-07T13:05:16.174Z,4.90
2018-08-07T13:07:44.980Z,5.10
2018-08-07T13:10:18.861Z,4.33
2018-08-07T13:12:48.015Z,4.60
2018-08-07T13:15:18.305Z,4.50
2018-08-07T13:17:47.420Z,5.20
2018-08-07T13:20:16.335Z,5.10
2018-08-07T13:22:45.595Z,4.57
2018-08-07T13:25:16.098Z,5.37
2018-08-07T13:27:44.840Z,5.27
2018-08-07T13:30:15.700Z,5.57
2018-08-07T13:32:44.470Z,4.90
2018-08-07T13:35:13.367Z,5.28
2018-08-07T13:37:43.396Z,5.00
2018-08-07T13:40:14.395Z,5.03
2018-08-07T13:42:43.124Z,5.00
2018-08-07T13:45:13.758Z,5.35
2018-08-07T13:47:42.487Z,4.65
2018-08-07T13:50:14.229Z,4.60
2018-08-07T13:52:43.475Z,4.70
2018-08-07T13:55:13.268Z,5.10
2018-08-07T13:57:41.932Z,5.35
2018-08-07T14:00:16.261Z,6.08
2018-08-07T14:02:45.415Z,5.37
2018-08-07T14:05:14.647Z,5.30
2018-08-07T14:07:43.601Z,5.60
2018-08-07T14:10:13.563Z,5.80
2018-08-07T14:12:42.715Z,5.65
2018-08-07T14:15:12.912Z,5.67
2018-08-07T14:17:42.595Z,6.10
2018-08-07T14:20:12.794Z,5.92
2018-08-07T14:22:41.584Z,5.83
2018-08-07T14:25:18.807Z,6.28
2018-08-07T14:27:47.438Z,6.20
2018-08-07T14:30:20.325Z,6.05
2018-08-07T14:32:49.457Z,6.40
2018-08-07T14:35:18.412Z,5.92
2018-08-07T14:37:47.940Z,5.97
2018-08-07T14:40:17.815Z,6.37
2018-08-07T14:42:47.672Z,6.57
2018-08-07T14:45:17.908Z,6.20
2018-08-07T14:47:46.992Z,5.97
2018-08-07T14:50:18.451Z,5.70
2018-08-07T14:52:47.102Z,5.70
2018-08-07T14:55:16.159Z,6.40
2018-08-07T14:57:44.879Z,6.50
2018-08-07T15:00:15.965Z,6.17
2018-08-07T15:02:45.245Z,5.90
2018-08-07T15:05:13.879Z,6.20
2018-08-07T15:07:42.591Z,5.97
2018-08-07T15:10:13.569Z,5.20
2018-08-07T15:12:42.440Z,4.58
2018-08-07T15:15:15.627Z,4.20
2018-08-07T15:17:44.331Z,4.93
2018-08-07T15:20:14.859Z,5.00
2018-08-07T15:22:44.476Z,5.10
2018-08-07T15:25:14.668Z,5.55
2018-08-07T15:27:43.364Z,5.20
2018-08-07T15:30:16.892Z,5.83
2018-08-07T15:32:46.397Z,6.10
2018-08-07T15:35:16.354Z,5.30
2018-08-07T15:37:45.544Z,5.30
2018-08-07T15:40:14.576Z,5.05
2018-08-07T15:42:43.997Z,5.03
2018-08-07T15:45:13.699Z,5.30
2018-08-07T15:47:42.440Z,6.40
2018-08-07T15:50:14.332Z,5.30
2018-08-07T15:52:44.499Z,4.90
2018-08-07T15:55:15.417Z,5.87
2018-08-07T15:57:44.352Z,5.60
2018-08-07T16:00:19.253Z,5.00
2018-08-07T16:02:47.898Z,5.20
2018-08-07T16:05:17.063Z,5.00
2018-08-07T16:07:46.070Z,5.50
2018-08-07T16:10:18.923Z,5.37
2018-08-07T16:12:48.746Z,4.97
2018-08-07T16:15:17.021Z,4.60
2018-08-07T16:17:46.857Z,4.50
2018-08-07T16:20:15.767Z,4.30
2018-08-07T16:22:44.435Z,4.85
2018-08-07T16:25:14.850Z,4.50
2018-08-07T16:27:44.796Z,4.50
2018-08-07T16:30:16.140Z,4.33
2018-08-07T16:32:44.678Z,3.92
2018-08-07T16:35:14.095Z,3.77
2018-08-07T16:37:43.098Z,4.10
2018-08-07T16:40:13.530Z,3.42
2018-08-07T16:42:42.375Z,3.58
2018-08-07T16:45:14.112Z,3.20
2018-08-07T16:47:42.879Z,3.83
2018-08-07T16:50:16.899Z,3.30
2018-08-07T16:52:45.806Z,3.70
2018-08-07T16:55:14.517Z,3.55
2018-08-07T16:57:43.436Z,3.73
2018-08-07T17:00:13.311Z,3.80
2018-08-07T17:02:41.951Z,4.12
2018-08-07T17:05:14.316Z,3.60
2018-08-07T17:07:43.872Z,3.83
2018-08-07T17:10:18.877Z,3.90
2018-08-07T17:12:47.659Z,3.90
2018-08-07T17:15:16.899Z,4.40
2018-08-07T17:17:45.951Z,3.80
2018-08-07T17:20:16.988Z,4.28
2018-08-07T17:22:46.187Z,4.17
2018-08-07T17:25:16.083Z,3.70
2018-08-07T17:27:45.937Z,4.15
2018-08-07T17:30:17.208Z,3.80
2018-08-07T17:32:46.246Z,4.37
2018-08-07T17:35:19.269Z,4.30
2018-08-07T17:37:48.985Z,4.33
2018-08-07T17:40:19.726Z,4.30
2018-08-07T17:42:48.242Z,4.35
2018-08-07T17:45:17.121Z,4.67
2018-08-07T17:47:46.132Z,4.58
2018-08-07T17:50:20.730Z,4.30
2018-08-07T17:52:49.939Z,4.33
2018-08-07T17:55:18.909Z,4.50
2018-08-07T17:57:48.266Z,4.53
2018-08-07T18:00:18.590Z,4.40
2018-08-07T18:02:47.464Z,4.70
2018-08-07T18:05:16.407Z,4.40
2018-08-07T18:07:47.133Z,4.65
2018-08-07T18:10:17.314Z,4.90
2018-08-07T18:12:46.192Z,4.72
2018-08-07T18:15:16.312Z,5.00
2018-08-07T18:17:45.458Z,5.20
2018-08-07T18:20:16.829Z,5.37
2018-08-07T18:22:45.491Z,5.50
2018-08-07T18:25:13.739Z,5.25
2018-08-07T18:27:42.658Z,5.10
2018-08-07T18:30:15.240Z,4.97
2018-08-07T18:32:44.481Z,4.93
2018-08-07T18:35:15.157Z,4.65
2018-08-07T18:37:43.945Z,5.20
2018-08-07T18:40:12.689Z,5.80
2018-08-07T18:42:41.289Z,5.80
2018-08-07T18:45:11.864Z,5.80
2018-08-07T18:47:41.350Z,5.40
2018-08-07T18:50:11.874Z,5.58
2018-08-07T18:52:40.495Z,5.60
2018-08-07T18:55:11.460Z,6.00
2018-08-07T18:57:41.071Z,5.70
2018-08-07T19:00:12.316Z,5.55
2018-08-07T19:02:41.364Z,4.97
2018-08-07T19:05:11.781Z,4.67
2018-08-07T19:07:40.603Z,4.67
2018-08-07T19:10:10.161Z,4.27
2018-08-07T19:12:39.087Z,4.70
2018-08-07T19:15:08.796Z,4.80
2018-08-07T19:17:37.579Z,4.50
2018-08-07T19:20:06.951Z,5.00
2018-08-07T19:22:35.643Z,5.03
2018-08-07T19:25:05.167Z,5.20
2018-08-07T19:27:33.846Z,5.50
2018-08-07T19:30:02.462Z,4.67
2018-08-07T19:32:31.363Z,4.80
2018-08-07T19:35:00.308Z,6.00
2018-08-07T19:37:28.970Z,5.55
2018-08-07T19:39:58.478Z,5.17
2018-08-07T19:42:27.488Z,5.12
2018-08-07T19:44:56.723Z,5.00
2018-08-07T19:47:25.456Z,4.67
2018-08-07T19:49:54.162Z,4.75
2018-08-07T19:52:22.815Z,5.20
2018-08-07T19:54:51.678Z,5.10
2018-08-07T19:57:20.311Z,5.20
2018-08-07T19:59:49.030Z,5.10
2018-08-07T20:02:17.771Z,5.15
2018-08-07T20:04:46.510Z,5.60
2018-08-07T20:07:15.286Z,5.37
2018-08-07T20:09:44.053Z,5.15
2018-08-07T20:12:12.729Z,5.40
2018-08-07T20:14:41.388Z,4.50
2018-08-07T20:17:10.230Z,5.90
2018-08-07T20:19:38.929Z,6.00
2018-08-07T20:22:12.687Z,5.80
2018-08-07T20:24:41.428Z,5.20
2018-08-07T20:27:10.328Z,5.37
2018-08-07T20:29:38.953Z,5.50
2018-08-07T20:32:08.344Z,6.60
2018-08-07T20:34:37.226Z,7.62
2018-08-07T20:37:05.892Z,7.50
2018-08-07T20:39:34.544Z,6.35
2018-08-07T20:42:03.411Z,6.28
2018-08-07T20:44:32.099Z,6.10
2018-08-07T20:47:00.784Z,5.75
2018-08-07T20:49:29.581Z,5.90
2018-08-07T20:51:58.451Z,6.30
2018-08-07T20:54:27.323Z,7.08
2018-08-07T20:56:56.112Z,7.08
2018-08-07T20:59:24.919Z,6.78
2018-08-07T21:01:53.803Z,6.40
2018-08-07T21:04:22.495Z,6.42
2018-08-07T21:06:51.145Z,6.80
2018-08-07T21:09:19.820Z,7.00
2018-08-07T21:11:48.674Z,6.42
2018-08-07T21:14:17.324Z,6.15
2018-08-07T21:16:46.082Z,6.40
2018-08-07T21:19:14.701Z,6.53
2018-08-07T21:21:43.482Z,6.50
2018-08-07T21:24:12.144Z,6.30
2018-08-07T21:29:08.827Z,6.00
2018-08-07T21:31:37.485Z,6.30
2018-08-07T21:34:06.192Z,5.70
2018-08-07T21:36:34.482Z,6.60
2018-08-07T21:39:04.174Z,7.33
2018-08-07T21:41:32.865Z,6.60
2018-08-07T21:44:01.416Z,7.00
2018-08-07T21:46:30.001Z,6.60
2018-08-07T21:48:58.596Z,8.40
2018-08-07T21:51:27.353Z,7.07
2018-08-07T21:53:55.959Z,7.07
2018-08-07T21:56:24.484Z,6.40
2018-08-07T21:58:53.060Z,6.10
2018-08-07T22:01:21.732Z,7.53
2018-08-07T22:03:50.387Z,7.73
2018-08-07T22:06:19.248Z,7.87
2018-08-07T22:08:47.904Z,6.90
2018-08-07T22:11:16.443Z,6.73
2018-08-07T22:13:45.055Z,7.20
2018-08-07T22:16:13.803Z,5.80
2018-08-07T22:18:42.452Z,7.77
2018-08-07T22:21:11.045Z,7.37
2018-08-07T22:23:39.739Z,7.23
2018-08-07T22:26:08.308Z,7.50
2018-08-07T22:28:37.056Z,8.30
2018-08-07T22:31:05.790Z,7.60
2018-08-07T22:33:34.343Z,7.53
2018-08-07T22:36:03.185Z,7.30
2018-08-07T22:38:31.771Z,7.93
2018-08-07T22:41:00.597Z,8.60
2018-08-07T22:43:29.198Z,9.00
2018-08-07T22:45:57.790Z,8.30
2018-08-07T22:48:26.337Z,6.57
2018-08-07T22:50:54.915Z,8.10
2018-08-07T22:53:23.482Z,7.50
2018-08-07T22:55:52.037Z,7.90
2018-08-07T22:58:20.577Z,8.03
2018-08-07T23:00:49.231Z,8.73
2018-08-07T23:03:17.805Z,8.47
2018-08-07T23:05:46.398Z,7.43
2018-08-07T23:08:15.037Z,8.50
2018-08-07T23:10:43.718Z,8.53
2018-08-07T23:13:12.355Z,9.33
2018-08-07T23:15:41.075Z,7.80
2018-08-07T23:18:09.722Z,8.57
2018-08-07T23:20:37.931Z,7.93
2018-08-07T23:23:06.482Z,7.20
2018-08-07T23:25:35.028Z,8.60
2018-08-07T23:28:03.631Z,9.00
2018-08-07T23:30:32.124Z,7.80
2018-08-07T23:33:00.743Z,8.73
2018-08-07T23:35:29.345Z,9.00
2018-08-07T23:37:58.023Z,8.80
2018-08-07T23:40:26.675Z,8.67
2018-08-07T23:42:55.279Z,9.13
2018-08-07T23:45:23.909Z,8.37
2018-08-07T23:47:52.579Z,8.90
2018-08-07T23:50:21.100Z,7.87
2018-08-07T23:52:49.686Z,6.97
2018-08-07T23:55:18.231Z,9.30
2018-08-07T23:57:46.751Z,7.70
